createdAt,value
2018-06-14T00:02:04.921Z,13.30
2018-06-14T00:04:32.220Z,13.30
2018-06-14T00:06:59.487Z,13.30
2018-06-14T00:09:26.725Z,13.30
2018-06-14T00:11:53.994Z,13.30
2018-06-14T00:14:21.319Z,13.30
2018-06-14T00:16:48.599Z,13.30
2018-06-14T00:19:15.922Z,13.30
2018-06-14T00:21:43.129Z,13.30
2018-06-14T00:24:10.385Z,13.30
2018-06-14T00:26:37.636Z,13.30
2018-06-14T00:29:04.934Z,13.30
2018-06-14T00:31:32.185Z,13.30
2018-06-14T00:33:59.391Z,13.30
2018-06-14T00:36:26.684Z,13.30
2018-06-14T00:38:53.944Z,13.30
2018-06-14T00:41:21.247Z,13.30
2018-06-14T00:43:48.500Z,13.30
2018-06-14T00:46:15.752Z,13.30
2018-06-14T00:48:43.005Z,13.30
2018-06-14T00:51:10.258Z,13.30
2018-06-14T00:53:37.511Z,13.30
2018-06-14T00:56:04.776Z,13.30
2018-06-14T00:58:32.090Z,13.20
2018-06-14T01:00:59.541Z,13.20
2018-06-14T01:03:26.787Z,13.10
2018-06-14T01:05:54.046Z,13.10
2018-06-14T01:08:21.294Z,13.10
2018-06-14T01:10:48.537Z,13.00
2018-06-14T01:13:15.831Z,13.10
2018-06-14T01:15:43.084Z,13.10
2018-06-14T01:18:10.899Z,13.10
2018-06-14T01:20:38.212Z,13.10
2018-06-14T01:23:05.791Z,13.10
2018-06-14T01:25:33.025Z,13.10
2018-06-14T01:28:00.291Z,13.10
2018-06-14T01:30:27.665Z,13.10
2018-06-14T01:32:54.918Z,13.10
2018-06-14T01:35:22.196Z,13.10
2018-06-14T01:38:00.900Z,13.10
2018-06-14T01:40:28.121Z,13.10
2018-06-14T01:45:22.777Z,13.10
2018-06-14T01:47:50.038Z,13.10
2018-06-14T01:50:17.238Z,13.10
2018-06-14T01:52:44.471Z,13.10
2018-06-14T01:55:11.835Z,13.00
2018-06-14T01:57:39.092Z,13.00
2018-06-14T02:00:06.448Z,13.00
2018-06-14T02:02:33.699Z,13.00
2018-06-14T02:05:00.960Z,13.00
2018-06-14T02:07:28.212Z,12.90
2018-06-14T02:09:55.533Z,12.90
2018-06-14T02:12:22.828Z,12.80
2018-06-14T02:14:50.117Z,12.80
2018-06-14T02:17:17.373Z,12.70
2018-06-14T02:19:44.670Z,12.60
2018-06-14T02:22:11.986Z,12.60
2018-06-14T02:24:39.236Z,12.50
2018-06-14T02:27:06.513Z,12.50
2018-06-14T02:29:33.849Z,12.40
2018-06-14T02:32:01.144Z,12.40
2018-06-14T02:34:28.627Z,12.30
2018-06-14T02:36:55.958Z,12.30
2018-06-14T02:39:23.257Z,12.30
2018-06-14T02:41:50.560Z,12.20
2018-06-14T02:44:17.922Z,12.20
2018-06-14T02:46:45.222Z,12.20
2018-06-14T02:49:12.478Z,12.10
2018-06-14T02:51:39.846Z,12.10
2018-06-14T02:54:07.058Z,12.00
2018-06-14T02:56:34.387Z,12.00
2018-06-14T02:59:01.664Z,12.00
2018-06-14T03:01:29.118Z,12.00
2018-06-14T03:03:56.365Z,11.90
2018-06-14T03:06:23.579Z,11.90
2018-06-14T03:08:50.776Z,11.90
2018-06-14T03:11:18.024Z,11.90
2018-06-14T03:13:45.277Z,11.90
2018-06-14T03:16:12.537Z,11.90
2018-06-14T03:18:39.879Z,11.80
2018-06-14T03:21:07.354Z,11.80
2018-06-14T03:23:34.606Z,11.80
2018-06-14T03:26:02.051Z,11.80
2018-06-14T03:28:29.354Z,11.80
2018-06-14T03:30:56.888Z,11.90
2018-06-14T03:33:24.216Z,11.90
2018-06-14T03:35:51.572Z,11.90
2018-06-14T03:38:18.893Z,11.90
2018-06-14T03:40:46.186Z,11.90
2018-06-14T03:43:13.408Z,11.90
2018-06-14T03:45:40.628Z,11.90
2018-06-14T03:48:07.893Z,11.90
2018-06-14T03:50:35.136Z,12.00
2018-06-14T03:53:02.360Z,12.00
2018-06-14T03:55:29.669Z,12.10
2018-06-14T03:57:56.917Z,12.10
2018-06-14T04:00:24.154Z,12.20
2018-06-14T04:02:51.438Z,12.20
2018-06-14T04:05:18.706Z,12.30
2018-06-14T04:07:46.129Z,12.30
2018-06-14T04:10:13.446Z,12.30
2018-06-14T04:12:40.733Z,12.40
2018-06-14T04:15:08.015Z,12.50
2018-06-14T04:17:36.588Z,12.50
2018-06-14T04:20:03.974Z,12.60
2018-06-14T04:22:31.280Z,12.70
2018-06-14T04:24:58.529Z,12.80
2018-06-14T04:27:25.918Z,12.90
2018-06-14T04:29:53.283Z,13.00
2018-06-14T04:32:20.597Z,13.10
2018-06-14T04:34:47.996Z,13.20
2018-06-14T04:37:15.300Z,13.40
2018-06-14T04:39:42.610Z,13.40
2018-06-14T04:42:10.013Z,13.50
2018-06-14T04:44:37.264Z,13.50
2018-06-14T04:47:04.633Z,13.60
2018-06-14T04:49:31.868Z,13.70
2018-06-14T04:51:59.084Z,13.70
2018-06-14T04:54:26.336Z,13.70
2018-06-14T04:56:53.841Z,13.80
2018-06-14T04:59:21.103Z,13.80
2018-06-14T05:01:48.336Z,13.90
2018-06-14T05:04:15.630Z,14.00
2018-06-14T05:06:43.121Z,14.10
2018-06-14T05:09:12.088Z,14.20
2018-06-14T05:11:40.362Z,14.20
2018-06-14T05:14:07.721Z,14.30
2018-06-14T05:16:38.681Z,14.30
2018-06-14T05:19:06.436Z,14.40
2018-06-14T05:21:33.754Z,14.50
2018-06-14T05:24:01.027Z,14.50
2018-06-14T05:26:28.256Z,14.50
2018-06-14T05:28:55.538Z,14.40
2018-06-14T05:31:23.186Z,14.50
2018-06-14T05:33:51.140Z,14.60
2018-06-14T05:38:45.744Z,14.80
2018-06-14T05:41:13.017Z,14.70
2018-06-14T05:43:40.371Z,14.70
2018-06-14T05:46:07.600Z,14.80
2018-06-14T05:48:34.953Z,14.90
2018-06-14T05:51:02.307Z,15.00
2018-06-14T05:53:29.665Z,15.00
2018-06-14T05:55:57.068Z,15.00
2018-06-14T05:58:24.371Z,15.10
2018-06-14T06:00:51.684Z,15.10
2018-06-14T06:03:18.976Z,15.20
2018-06-14T06:05:46.438Z,15.10
2018-06-14T06:08:13.743Z,15.20
2018-06-14T06:10:41.073Z,15.20
2018-06-14T06:13:08.726Z,15.10
2018-06-14T06:15:36.165Z,15.10
2018-06-14T06:18:03.445Z,15.20
2018-06-14T06:20:30.773Z,15.10
2018-06-14T06:22:58.311Z,15.30
2018-06-14T06:25:25.591Z,15.50
2018-06-14T06:27:52.958Z,15.60
2018-06-14T06:30:20.246Z,15.60
2018-06-14T06:32:48.093Z,15.50
2018-06-14T06:35:15.403Z,15.40
2018-06-14T06:37:42.647Z,15.50
2018-06-14T06:40:10.004Z,15.50
2018-06-14T06:42:37.357Z,15.60
2018-06-14T06:45:05.622Z,15.70
2018-06-14T06:50:00.234Z,15.60
2018-06-14T06:52:27.463Z,15.60
2018-06-14T06:54:54.748Z,15.60
2018-06-14T06:57:22.009Z,15.70
2018-06-14T06:59:49.264Z,15.90
2018-06-14T07:02:16.557Z,16.10
2018-06-14T07:04:43.844Z,16.00
2018-06-14T07:07:11.211Z,16.20
2018-06-14T07:09:38.524Z,16.20
2018-06-14T07:12:05.823Z,16.30
2018-06-14T07:14:33.216Z,16.40
2018-06-14T07:17:00.617Z,16.40
2018-06-14T07:19:27.898Z,16.40
2018-06-14T07:21:55.215Z,16.50
2018-06-14T07:24:22.397Z,16.60
2018-06-14T07:26:49.727Z,16.50
2018-06-14T07:29:16.952Z,16.60
2018-06-14T07:31:44.310Z,16.80
2018-06-14T07:34:11.662Z,16.70
2018-06-14T07:36:38.945Z,16.90
2018-06-14T07:39:09.276Z,16.90
2018-06-14T07:41:36.720Z,17.00
2018-06-14T07:44:04.175Z,17.20
2018-06-14T07:46:31.912Z,17.20
2018-06-14T07:48:59.708Z,17.40
2018-06-14T07:51:26.996Z,17.60
2018-06-14T07:53:54.303Z,17.80
2018-06-14T07:56:21.628Z,17.40
2018-06-14T07:58:48.882Z,17.30
2018-06-14T08:01:16.213Z,17.50
2018-06-14T08:03:44.031Z,17.60
2018-06-14T08:06:11.356Z,17.60
2018-06-14T08:08:38.708Z,17.60
2018-06-14T08:11:06.211Z,17.70
2018-06-14T08:13:34.492Z,17.70
2018-06-14T08:16:01.823Z,17.70
2018-06-14T08:18:29.134Z,17.70
2018-06-14T08:20:56.384Z,17.70
2018-06-14T08:23:23.625Z,17.80
2018-06-14T08:25:50.870Z,17.80
2018-06-14T08:28:18.172Z,17.90
2018-06-14T08:30:45.427Z,18.10
2018-06-14T08:33:12.840Z,18.00
2018-06-14T08:35:40.234Z,18.00
2018-06-14T08:38:07.013Z,18.10
2018-06-14T08:40:33.921Z,18.20
2018-06-14T08:43:00.719Z,18.40
2018-06-14T08:45:27.477Z,18.60
2018-06-14T08:50:21.368Z,18.30
2018-06-14T08:52:48.151Z,18.20
2018-06-14T08:55:15.487Z,18.20
2018-06-14T08:57:42.762Z,18.20
2018-06-14T09:00:10.071Z,18.30
2018-06-14T09:02:37.406Z,18.40
2018-06-14T09:05:04.765Z,18.50
2018-06-14T09:09:59.931Z,18.80
2018-06-14T09:12:27.217Z,19.10
2018-06-14T09:14:54.493Z,19.10
2018-06-14T09:17:22.047Z,19.10
2018-06-14T09:19:49.327Z,18.90
2018-06-14T09:22:16.991Z,18.90
2018-06-14T09:24:44.268Z,19.20
2018-06-14T09:27:11.571Z,19.50
2018-06-14T09:29:38.951Z,19.40
2018-06-14T09:32:06.247Z,19.50
2018-06-14T09:34:33.564Z,19.80
2018-06-14T09:37:00.861Z,20.10
2018-06-14T09:39:28.076Z,20.40
2018-06-14T09:41:55.394Z,20.70
2018-06-14T09:44:23.064Z,20.50
2018-06-14T09:49:17.742Z,20.50
2018-06-14T09:51:46.723Z,20.60
2018-06-14T09:54:14.660Z,20.50
2018-06-14T09:56:42.086Z,20.80
2018-06-14T09:59:09.349Z,21.20
2018-06-14T10:01:36.757Z,21.10
2018-06-14T10:04:04.136Z,21.00
2018-06-14T10:06:31.441Z,20.80
2018-06-14T10:08:58.696Z,20.40
2018-06-14T10:11:26.272Z,20.50
2018-06-14T10:13:53.636Z,20.80
2018-06-14T10:16:21.684Z,20.90
2018-06-14T10:18:49.026Z,21.00
2018-06-14T10:21:16.274Z,21.00
2018-06-14T10:23:43.839Z,21.20
2018-06-14T10:26:11.168Z,21.00
2018-06-14T10:28:38.668Z,20.90
2018-06-14T10:31:06.064Z,21.10
2018-06-14T10:33:33.326Z,21.10
2018-06-14T10:36:00.610Z,21.10
2018-06-14T10:38:27.945Z,21.00
2018-06-14T10:43:22.575Z,21.20
2018-06-14T10:45:49.336Z,21.70
2018-06-14T10:48:16.223Z,21.90
2018-06-14T10:50:43.479Z,22.10
2018-06-14T10:53:10.720Z,22.00
2018-06-14T10:55:38.124Z,22.00
2018-06-14T10:58:05.404Z,21.90
2018-06-14T11:00:32.642Z,22.00
2018-06-14T11:03:00.056Z,22.00
2018-06-14T11:05:27.281Z,22.60
2018-06-14T11:07:54.529Z,22.40
2018-06-14T11:10:21.832Z,22.60
2018-06-14T11:12:51.104Z,22.90
2018-06-14T11:15:18.447Z,22.40
2018-06-14T11:17:45.716Z,22.40
2018-06-14T11:22:40.402Z,23.40
2018-06-14T11:25:07.756Z,23.10
2018-06-14T11:27:35.063Z,22.80
2018-06-14T11:30:02.387Z,22.70
2018-06-14T11:32:29.592Z,22.50
2018-06-14T11:34:56.316Z,22.30
2018-06-14T11:37:24.536Z,23.60
2018-06-14T11:39:51.789Z,24.40
2018-06-14T11:42:18.576Z,24.20
2018-06-14T11:44:45.833Z,24.50
2018-06-14T11:47:12.571Z,25.40
2018-06-14T11:49:39.928Z,25.80
2018-06-14T11:52:06.771Z,25.70
2018-06-14T11:54:34.029Z,26.10
2018-06-14T11:57:00.845Z,26.80
2018-06-14T11:59:28.243Z,27.60
2018-06-14T12:01:55.576Z,27.30
2018-06-14T12:06:50.186Z,29.00
2018-06-14T12:09:17.456Z,29.90
2018-06-14T12:11:44.227Z,28.40
2018-06-14T12:14:11.120Z,26.90
2018-06-14T12:16:38.144Z,26.90
2018-06-14T12:19:05.396Z,27.00
2018-06-14T12:21:33.162Z,26.90
2018-06-14T12:24:00.410Z,26.70
2018-06-14T12:26:27.192Z,27.00
2018-06-14T12:28:53.990Z,27.60
2018-06-14T12:31:21.397Z,28.80
2018-06-14T12:33:49.362Z,29.20
2018-06-14T12:37:19.994Z,30.90
2018-06-14T12:39:47.302Z,29.80
2018-06-14T12:42:14.556Z,27.70
2018-06-14T12:44:41.307Z,27.10
2018-06-14T12:47:09.077Z,26.20
2018-06-14T12:49:36.326Z,25.30
2018-06-14T12:52:03.610Z,24.70
2018-06-14T12:54:30.928Z,25.20
2018-06-14T12:56:58.273Z,25.60
2018-06-14T12:59:25.886Z,26.20
2018-06-14T13:01:53.184Z,28.20
2018-06-14T13:04:20.440Z,28.60
2018-06-14T13:06:47.706Z,28.00
2018-06-14T13:09:14.990Z,26.80
2018-06-14T13:11:42.410Z,27.20
2018-06-14T13:14:10.831Z,26.50
2018-06-14T13:16:38.144Z,25.80
2018-06-14T13:19:05.525Z,26.50
2018-06-14T13:21:32.533Z,28.60
2018-06-14T13:23:59.832Z,30.40
2018-06-14T13:26:27.157Z,30.70
2018-06-14T13:28:54.453Z,30.70
2018-06-14T13:31:21.692Z,31.40
2018-06-14T13:33:49.007Z,30.10
2018-06-14T13:36:16.699Z,29.60
2018-06-14T13:38:44.080Z,29.80
2018-06-14T13:41:11.968Z,28.50
2018-06-14T13:43:39.348Z,27.90
2018-06-14T13:46:06.641Z,28.50
2018-06-14T13:48:33.879Z,29.00
2018-06-14T13:51:01.180Z,28.40
2018-06-14T13:53:28.839Z,28.70
2018-06-14T13:55:56.101Z,28.90
2018-06-14T13:58:23.409Z,29.30
2018-06-14T14:00:50.796Z,28.00
2018-06-14T14:03:18.083Z,27.80
2018-06-14T14:05:45.376Z,27.80
2018-06-14T14:08:12.652Z,27.30
2018-06-14T14:10:39.967Z,26.30
2018-06-14T14:13:07.235Z,26.20
2018-06-14T14:15:34.664Z,25.60
2018-06-14T14:18:02.091Z,25.10
2018-06-14T14:20:29.342Z,24.80
2018-06-14T14:22:56.578Z,25.00
2018-06-14T14:25:23.898Z,25.30
2018-06-14T14:27:51.199Z,25.30
2018-06-14T14:30:18.548Z,25.80
2018-06-14T14:32:45.848Z,25.80
2018-06-14T14:35:13.112Z,26.10
2018-06-14T14:37:40.467Z,26.10
2018-06-14T14:40:07.788Z,25.50
2018-06-14T14:42:35.011Z,25.40
2018-06-14T14:45:02.468Z,27.50
2018-06-14T14:47:29.800Z,26.80
2018-06-14T14:49:56.627Z,27.60
2018-06-14T14:52:23.943Z,29.30
2018-06-14T14:54:51.200Z,30.40
2018-06-14T14:57:18.520Z,31.10
2018-06-14T14:59:46.107Z,29.50
2018-06-14T15:02:13.371Z,29.00
2018-06-14T15:04:40.770Z,28.40
2018-06-14T15:07:08.098Z,27.90
2018-06-14T15:09:35.520Z,27.90
2018-06-14T15:12:03.014Z,27.40
2018-06-14T15:14:30.646Z,26.70
2018-06-14T15:17:00.197Z,25.90
2018-06-14T15:19:27.446Z,25.30
2018-06-14T15:21:54.727Z,25.10
2018-06-14T15:24:21.950Z,25.20
2018-06-14T15:26:49.202Z,25.60
2018-06-14T15:29:16.457Z,25.80
2018-06-14T15:31:43.766Z,26.10
2018-06-14T15:34:11.116Z,25.60
2018-06-14T15:36:38.417Z,25.40
2018-06-14T15:39:06.858Z,25.80
2018-06-14T15:41:34.157Z,25.60
2018-06-14T15:44:01.403Z,25.60
2018-06-14T15:46:28.656Z,25.60
2018-06-14T15:48:56.325Z,26.20
2018-06-14T15:51:23.645Z,26.40
2018-06-14T15:53:50.979Z,26.50
2018-06-14T15:56:33.442Z,26.10
2018-06-14T15:59:01.509Z,25.20
2018-06-14T16:01:29.121Z,25.00
2018-06-14T16:03:56.524Z,24.80
2018-06-14T16:06:23.801Z,24.60
2018-06-14T16:08:51.189Z,24.60
2018-06-14T16:11:18.647Z,24.70
2018-06-14T16:13:46.077Z,24.50
2018-06-14T16:16:13.483Z,24.00
2018-06-14T16:18:41.038Z,23.70
2018-06-14T16:21:08.371Z,23.30
2018-06-14T16:23:35.876Z,23.00
2018-06-14T16:26:03.247Z,23.10
2018-06-14T16:28:30.583Z,23.00
2018-06-14T16:30:57.939Z,22.90
2018-06-14T16:33:25.407Z,22.80
2018-06-14T16:35:52.747Z,22.50
2018-06-14T16:38:20.212Z,22.20
2018-06-14T16:40:47.580Z,21.90
2018-06-14T16:43:15.258Z,21.70
2018-06-14T16:45:42.610Z,21.60
2018-06-14T16:48:09.962Z,21.50
2018-06-14T16:50:37.309Z,21.10
2018-06-14T16:53:04.923Z,19.80
2018-06-14T16:55:32.344Z,18.70
2018-06-14T16:57:59.681Z,17.90
2018-06-14T17:00:26.932Z,16.70
2018-06-14T17:02:54.345Z,15.70
2018-06-14T17:05:21.900Z,15.20
2018-06-14T17:07:49.151Z,15.00
2018-06-14T17:10:16.443Z,14.80
2018-06-14T17:12:43.747Z,14.70
2018-06-14T17:15:11.119Z,14.70
2018-06-14T17:17:38.617Z,14.70
2018-06-14T17:20:05.936Z,14.70
2018-06-14T17:22:33.172Z,14.70
2018-06-14T17:25:00.468Z,14.70
2018-06-14T17:27:27.735Z,14.70
2018-06-14T17:29:55.003Z,14.70
2018-06-14T17:32:22.298Z,14.70
2018-06-14T17:34:49.633Z,14.80
2018-06-14T17:37:16.897Z,14.80
2018-06-14T17:39:44.157Z,14.80
2018-06-14T17:42:11.492Z,14.80
2018-06-14T17:44:38.776Z,14.80
2018-06-14T17:47:06.064Z,14.70
2018-06-14T17:52:00.688Z,14.60
2018-06-14T17:54:28.002Z,14.60
2018-06-14T17:56:55.436Z,14.60
2018-06-14T17:59:22.820Z,14.60
2018-06-14T18:01:50.175Z,14.60
2018-06-14T18:04:17.507Z,14.50
2018-06-14T18:06:44.846Z,14.60
2018-06-14T18:09:12.626Z,14.60
2018-06-14T18:11:39.856Z,14.50
2018-06-14T18:14:07.216Z,14.50
2018-06-14T18:16:34.840Z,14.60
2018-06-14T18:19:02.172Z,14.60
2018-06-14T18:21:29.514Z,14.60
2018-06-14T18:23:56.878Z,14.60
2018-06-14T18:26:24.203Z,14.70
2018-06-14T18:28:51.732Z,14.70
2018-06-14T18:31:19.020Z,14.60
2018-06-14T18:33:46.366Z,14.70
2018-06-14T18:36:13.677Z,14.70
2018-06-14T18:38:41.114Z,14.80
2018-06-14T18:41:08.430Z,14.80
2018-06-14T18:43:35.828Z,14.70
2018-06-14T18:46:03.184Z,14.80
2018-06-14T18:48:30.844Z,14.80
2018-06-14T18:50:58.132Z,14.70
2018-06-14T18:53:25.527Z,14.80
2018-06-14T18:55:52.942Z,14.80
2018-06-14T18:58:20.220Z,14.90
2018-06-14T19:00:47.775Z,14.90
2018-06-14T19:03:15.049Z,15.00
2018-06-14T19:05:42.356Z,15.00
2018-06-14T19:08:09.808Z,15.10
2018-06-14T19:10:37.855Z,15.20
2018-06-14T19:13:05.162Z,15.20
2018-06-14T19:17:59.635Z,15.40
2018-06-14T19:20:26.912Z,15.40
2018-06-14T19:22:54.210Z,15.50
2018-06-14T19:25:21.457Z,15.50
2018-06-14T19:27:48.744Z,15.60
2018-06-14T19:30:16.032Z,15.50
2018-06-14T19:32:43.237Z,15.50
2018-06-14T19:35:10.542Z,15.60
2018-06-14T19:37:37.929Z,15.60
2018-06-14T19:40:05.223Z,15.70
2018-06-14T19:42:32.505Z,15.70
2018-06-14T19:44:59.726Z,15.80
2018-06-14T19:47:26.950Z,15.80
2018-06-14T19:49:54.195Z,15.80
2018-06-14T19:52:21.405Z,15.80
2018-06-14T19:54:48.644Z,15.70
2018-06-14T19:57:16.171Z,15.80
2018-06-14T19:59:43.462Z,15.80
2018-06-14T20:02:10.688Z,15.80
2018-06-14T20:04:37.944Z,15.90
2018-06-14T20:07:05.246Z,15.90
2018-06-14T20:09:32.464Z,15.90
2018-06-14T20:11:59.731Z,16.00
2018-06-14T20:14:27.003Z,16.00
2018-06-14T20:19:21.489Z,15.90
2018-06-14T20:21:49.110Z,16.00
2018-06-14T20:24:16.379Z,16.00
2018-06-14T20:26:43.599Z,16.00
2018-06-14T20:29:10.905Z,16.00
2018-06-14T20:34:05.501Z,16.00
2018-06-14T20:36:32.728Z,16.00
2018-06-14T20:39:00.365Z,16.10
2018-06-14T20:41:27.641Z,16.20
2018-06-14T20:43:54.937Z,16.20
2018-06-14T20:46:22.160Z,16.20
2018-06-14T20:48:49.408Z,16.20
2018-06-14T20:51:16.704Z,16.20
2018-06-14T20:53:43.998Z,16.10
2018-06-14T20:56:11.289Z,16.10
2018-06-14T20:58:38.605Z,16.00
2018-06-14T21:01:06.175Z,15.90
2018-06-14T21:03:33.666Z,15.90
2018-06-14T21:06:00.988Z,15.80
2018-06-14T21:08:28.348Z,15.90
2018-06-14T21:10:55.720Z,15.90
2018-06-14T21:13:23.124Z,15.90
2018-06-14T21:15:50.468Z,15.80
2018-06-14T21:18:17.859Z,15.80
2018-06-14T21:20:45.817Z,15.80
2018-06-14T21:23:13.088Z,15.80
2018-06-14T21:25:40.841Z,15.80
2018-06-14T21:28:08.392Z,15.80
2018-06-14T21:30:35.897Z,15.80
2018-06-14T21:33:02.645Z,15.80
2018-06-14T21:35:29.455Z,15.80
2018-06-14T21:37:56.478Z,15.80
2018-06-14T21:40:24.556Z,15.80
2018-06-14T21:42:51.796Z,15.80
2018-06-14T21:45:19.048Z,15.80
2018-06-14T21:47:46.368Z,15.90
2018-06-14T21:50:13.634Z,15.80
2018-06-14T21:52:40.908Z,15.80
2018-06-14T21:57:35.555Z,15.80
2018-06-14T22:00:02.921Z,15.80
2018-06-14T22:02:30.182Z,15.80
2018-06-14T22:04:57.049Z,15.80
2018-06-14T22:07:23.756Z,15.70
2018-06-14T22:09:50.463Z,15.70
2018-06-14T22:12:17.196Z,15.70
2018-06-14T22:14:43.922Z,15.70
2018-06-14T22:17:10.880Z,15.60
2018-06-14T22:19:37.715Z,15.60
2018-06-14T22:22:04.536Z,15.60
2018-06-14T22:24:31.750Z,15.60
2018-06-14T22:26:58.656Z,15.60
2018-06-14T22:29:26.570Z,15.50
2018-06-14T22:31:53.875Z,15.50
2018-06-14T22:34:32.757Z,15.50
2018-06-14T22:37:00.081Z,15.50
2018-06-14T22:39:27.409Z,15.60
2018-06-14T22:41:54.711Z,15.60
2018-06-14T22:44:22.102Z,15.60
2018-06-14T22:46:49.396Z,15.60
2018-06-14T22:49:16.756Z,15.60
2018-06-14T22:51:57.006Z,15.60
2018-06-14T22:54:24.264Z,15.60
2018-06-14T22:56:51.514Z,15.60
2018-06-14T22:59:18.741Z,15.60
2018-06-14T23:01:49.708Z,15.60
2018-06-14T23:04:19.161Z,15.60
2018-06-14T23:10:37.314Z,15.60
2018-06-14T23:13:05.488Z,15.60
2018-06-14T23:15:32.837Z,15.60
2018-06-14T23:18:00.414Z,15.60
2018-06-14T23:20:28.744Z,15.60
2018-06-14T23:22:57.017Z,15.60
2018-06-14T23:25:25.088Z,15.60
2018-06-14T23:27:52.385Z,15.60
2018-06-14T23:30:19.750Z,15.60
2018-06-14T23:32:47.249Z,15.60
2018-06-14T23:35:14.705Z,15.60
2018-06-14T23:37:42.100Z,15.60
2018-06-14T23:40:09.887Z,15.60
2018-06-14T23:42:37.316Z,15.60
2018-06-14T23:45:04.671Z,15.60
2018-06-14T23:47:32.027Z,15.60
2018-06-14T23:49:59.345Z,15.60
2018-06-14T23:52:26.644Z,15.60
2018-06-14T23:54:53.957Z,15.60
2018-06-14T23:57:21.673Z,15.60
2018-06-14T23:59:49.835Z,15.60
